createdAt,value
2022-10-19T00:01:09.593Z,99778.38
2022-10-19T00:03:37.872Z,99766.09
2022-10-19T00:06:18.810Z,99786.75
2022-10-19T00:08:46.081Z,99793.13
2022-10-19T00:11:13.456Z,99800.25
2022-10-19T00:13:40.874Z,99791.53
2022-10-19T00:16:14.715Z,99816.59
2022-10-19T00:18:46.024Z,99753.41
2022-10-19T00:21:17.087Z,99744.00
2022-10-19T00:23:45.279Z,99766.53
2022-10-19T00:26:13.157Z,99758.22
2022-10-19T00:28:40.227Z,99794.09
2022-10-19T00:31:11.727Z,99798.28
2022-10-19T00:33:39.319Z,99830.38
2022-10-19T00:36:14.126Z,99747.53
2022-10-19T00:38:42.370Z,99734.03
2022-10-19T00:41:09.709Z,99769.84
2022-10-19T00:44:04.368Z,99796.25
2022-10-19T00:46:36.630Z,99722.13
2022-10-19T00:49:17.643Z,99766.72
2022-10-19T00:51:50.400Z,99765.22
2022-10-19T00:54:18.641Z,99734.69
2022-10-19T00:56:49.267Z,99765.94
2022-10-19T00:59:20.578Z,99790.03
2022-10-19T01:01:49.277Z,99804.34
2022-10-19T01:04:16.583Z,99807.56
2022-10-19T01:06:43.940Z,99727.72
2022-10-19T01:09:11.032Z,99758.25
2022-10-19T01:12:04.412Z,99738.81
2022-10-19T01:15:15.727Z,99736.94
2022-10-19T01:17:58.272Z,99780.13
2022-10-19T01:20:33.803Z,99788.09
2022-10-19T01:23:45.391Z,99785.84
2022-10-19T01:26:41.539Z,99816.69
2022-10-19T01:29:32.629Z,99787.94
2022-10-19T01:32:27.283Z,99739.84
2022-10-19T01:35:10.295Z,99731.34
2022-10-19T01:37:50.814Z,99767.97
2022-10-19T01:40:52.733Z,99724.25
2022-10-19T01:44:01.353Z,99817.78
2022-10-19T01:46:43.696Z,99794.53
2022-10-19T01:49:29.277Z,99753.25
2022-10-19T01:52:03.988Z,99741.31
2022-10-19T01:54:38.748Z,99773.00
2022-10-19T01:57:09.352Z,99759.38
2022-10-19T01:59:38.793Z,99815.97
2022-10-19T02:02:08.900Z,99775.13
2022-10-19T02:04:38.204Z,99734.97
2022-10-19T02:07:08.260Z,99753.41
2022-10-19T02:09:35.942Z,99788.50
2022-10-19T02:12:09.397Z,99742.09
2022-10-19T02:14:51.779Z,99799.72
2022-10-19T02:17:25.358Z,99799.88
2022-10-19T02:19:54.896Z,99799.94
2022-10-19T02:22:22.375Z,99787.66
2022-10-19T02:24:49.512Z,99776.13
2022-10-19T02:27:17.316Z,99781.72
2022-10-19T02:29:44.931Z,99773.03
2022-10-19T02:32:12.441Z,99746.66
2022-10-19T02:34:40.195Z,99765.81
2022-10-19T02:37:07.367Z,99721.66
2022-10-19T02:39:34.667Z,99749.41
2022-10-19T02:42:17.111Z,99724.75
2022-10-19T02:45:02.559Z,99763.69
2022-10-19T02:47:42.802Z,99780.31
2022-10-19T02:50:11.762Z,99724.97
2022-10-19T02:52:40.619Z,99740.09
2022-10-19T02:55:09.380Z,99755.09
2022-10-19T02:57:37.401Z,99752.69
2022-10-19T03:00:07.637Z,99749.94
2022-10-19T03:02:35.077Z,99752.59
2022-10-19T03:05:02.797Z,99713.97
2022-10-19T03:07:30.079Z,99716.56
2022-10-19T03:09:57.193Z,99750.94
2022-10-19T03:12:24.120Z,99706.28
2022-10-19T03:14:51.121Z,99719.75
2022-10-19T03:17:18.150Z,99747.94
2022-10-19T03:19:45.356Z,99733.59
2022-10-19T03:22:15.085Z,99739.97
2022-10-19T03:24:42.121Z,99742.53
2022-10-19T03:27:09.628Z,99729.06
2022-10-19T03:29:36.559Z,99669.75
2022-10-19T03:32:04.270Z,99672.09
2022-10-19T03:34:31.234Z,99685.41
2022-10-19T03:36:59.388Z,99708.84
2022-10-19T03:39:26.606Z,99706.09
2022-10-19T03:41:53.790Z,99723.50
2022-10-19T03:44:20.710Z,99722.78
2022-10-19T03:46:47.978Z,99733.28
2022-10-19T03:49:15.041Z,99750.94
2022-10-19T03:51:42.418Z,99733.06
2022-10-19T03:54:15.619Z,99717.19
2022-10-19T03:56:43.647Z,99752.09
2022-10-19T03:59:15.842Z,99728.47
2022-10-19T04:01:45.855Z,99699.81
2022-10-19T04:04:19.397Z,99730.16
2022-10-19T04:06:50.171Z,99740.81
2022-10-19T04:09:21.007Z,99752.38
2022-10-19T04:11:48.830Z,99736.44
2022-10-19T04:14:31.607Z,99740.56
2022-10-19T04:17:06.489Z,99741.69
2022-10-19T04:19:33.473Z,99726.06
2022-10-19T04:22:00.681Z,99745.06
2022-10-19T04:24:27.785Z,99770.75
2022-10-19T04:26:56.594Z,99734.22
2022-10-19T04:29:29.606Z,99738.22
2022-10-19T04:31:58.591Z,99725.41
2022-10-19T04:34:25.592Z,99707.50
2022-10-19T04:36:53.933Z,99728.56
2022-10-19T04:39:20.913Z,99748.06
2022-10-19T04:41:48.019Z,99707.47
2022-10-19T04:44:15.593Z,99723.44
2022-10-19T04:46:42.992Z,99701.50
2022-10-19T04:49:09.987Z,99708.81
2022-10-19T04:51:37.099Z,99699.16
2022-10-19T04:54:04.727Z,99740.47
2022-10-19T04:56:32.608Z,99731.81
2022-10-19T04:59:01.248Z,99710.41
2022-10-19T05:01:31.168Z,99697.28
2022-10-19T05:04:01.366Z,99691.25
2022-10-19T05:06:30.787Z,99728.56
2022-10-19T05:08:58.438Z,99709.41
2022-10-19T05:11:26.479Z,99693.41
2022-10-19T05:13:53.466Z,99742.03
2022-10-19T05:16:22.679Z,99712.34
2022-10-19T05:18:52.190Z,99718.28
2022-10-19T05:21:21.809Z,99752.53
2022-10-19T05:23:53.148Z,99710.25
2022-10-19T05:26:23.344Z,99719.13
2022-10-19T05:29:04.683Z,99712.69
2022-10-19T05:31:33.824Z,99748.91
2022-10-19T05:34:01.505Z,99726.22
2022-10-19T05:36:38.041Z,99702.31
2022-10-19T05:39:17.509Z,99677.53
2022-10-19T05:41:46.359Z,99714.41
2022-10-19T05:44:20.407Z,99734.97
2022-10-19T05:46:48.942Z,99730.28
2022-10-19T05:49:18.779Z,99723.91
2022-10-19T05:51:45.899Z,99722.69
2022-10-19T05:54:14.208Z,99733.50
2022-10-19T05:56:42.556Z,99702.88
2022-10-19T05:59:14.436Z,99719.91
2022-10-19T06:01:41.479Z,99717.13
2022-10-19T06:04:08.879Z,99723.91
2022-10-19T06:06:35.957Z,99745.41
2022-10-19T06:09:03.776Z,99743.88
2022-10-19T06:11:35.120Z,99697.63
2022-10-19T06:14:06.888Z,99727.88
2022-10-19T06:16:35.192Z,99704.72
2022-10-19T06:19:02.597Z,99706.91
2022-10-19T06:21:31.764Z,99700.00
2022-10-19T06:24:03.084Z,99715.13
2022-10-19T06:26:32.028Z,99710.22
2022-10-19T06:29:00.802Z,99709.50
2022-10-19T06:31:33.212Z,99704.34
2022-10-19T06:34:01.551Z,99703.09
2022-10-19T06:36:30.807Z,99711.81
2022-10-19T06:38:59.881Z,99712.00
2022-10-19T06:41:27.821Z,99691.81
2022-10-19T06:43:56.051Z,99716.78
2022-10-19T06:46:25.417Z,99712.34
2022-10-19T06:48:58.604Z,99711.19
2022-10-19T06:51:27.936Z,99705.50
2022-10-19T06:53:57.220Z,99730.66
2022-10-19T06:56:25.839Z,99727.81
2022-10-19T06:58:53.714Z,99720.72
2022-10-19T07:01:21.204Z,99715.03
2022-10-19T07:03:50.046Z,99752.53
2022-10-19T07:06:17.154Z,99729.41
2022-10-19T07:08:44.497Z,99746.56
2022-10-19T07:11:16.929Z,99753.34
2022-10-19T07:13:44.300Z,99768.50
2022-10-19T07:16:19.515Z,99743.34
2022-10-19T07:18:51.555Z,99748.63
2022-10-19T07:21:21.711Z,99725.44
2022-10-19T07:23:49.427Z,99731.03
2022-10-19T07:26:22.218Z,99738.25
2022-10-19T07:28:50.136Z,99751.06
2022-10-19T07:31:20.682Z,99750.16
2022-10-19T07:33:55.514Z,99727.75
2022-10-19T07:36:23.620Z,99747.81
2022-10-19T07:38:51.145Z,99756.53
2022-10-19T07:41:21.887Z,99742.88
2022-10-19T07:43:50.485Z,99764.47
2022-10-19T07:46:21.476Z,99736.63
2022-10-19T07:48:49.073Z,99749.78
2022-10-19T07:51:18.715Z,99747.78
2022-10-19T07:53:46.660Z,99766.13
2022-10-19T07:56:26.256Z,99788.47
2022-10-19T07:58:56.644Z,99746.25
2022-10-19T08:01:27.811Z,99778.91
2022-10-19T08:06:44.142Z,99753.47
2022-10-19T08:09:22.801Z,99737.41
2022-10-19T08:11:58.673Z,99768.47
2022-10-19T08:14:26.200Z,99768.50
2022-10-19T08:16:53.104Z,99748.53
2022-10-19T08:19:20.429Z,99764.50
2022-10-19T08:21:47.536Z,99753.31
2022-10-19T08:24:17.886Z,99758.19
2022-10-19T08:26:45.197Z,99776.59
2022-10-19T08:29:15.856Z,99754.19
2022-10-19T08:31:45.217Z,99755.81
2022-10-19T08:34:14.794Z,99773.28
2022-10-19T08:39:14.634Z,99759.41
2022-10-19T08:45:09.351Z,99774.91
2022-10-19T08:47:58.992Z,99767.78
2022-10-19T08:50:40.601Z,99752.63
2022-10-19T08:53:19.355Z,99757.41
2022-10-19T08:56:26.870Z,99771.00
2022-10-19T08:59:19.655Z,99756.72
2022-10-19T09:01:57.034Z,99736.75
2022-10-19T09:04:42.444Z,99725.28
2022-10-19T09:07:31.096Z,99759.13
2022-10-19T09:10:15.944Z,99720.97
2022-10-19T09:12:58.425Z,99732.44
2022-10-19T09:15:45.798Z,99732.03
2022-10-19T09:18:22.295Z,99761.91
2022-10-19T09:20:56.047Z,99736.06
2022-10-19T09:23:32.095Z,99746.84
2022-10-19T09:25:59.061Z,99735.31
2022-10-19T09:28:56.050Z,99743.25
2022-10-19T09:31:46.159Z,99738.09
2022-10-19T09:34:26.834Z,99749.59
2022-10-19T09:36:59.426Z,99738.13
2022-10-19T09:39:29.697Z,99750.41
2022-10-19T09:42:33.858Z,99752.78
2022-10-19T09:45:16.536Z,99748.03
2022-10-19T09:47:48.240Z,99751.59
2022-10-19T09:50:27.198Z,99729.78
2022-10-19T09:52:58.519Z,99727.38
2022-10-19T09:55:39.313Z,99735.31
2022-10-19T09:58:21.012Z,99728.59
2022-10-19T10:00:56.773Z,99742.47
2022-10-19T10:03:40.780Z,99738.47
2022-10-19T10:06:15.005Z,99730.97
2022-10-19T10:08:58.016Z,99748.00
2022-10-19T10:11:38.231Z,99725.78
2022-10-19T10:14:17.237Z,99724.19
2022-10-19T10:16:44.343Z,99704.31
2022-10-19T10:19:17.043Z,99701.19
2022-10-19T10:21:57.903Z,99721.03
2022-10-19T10:24:31.349Z,99736.06
2022-10-19T10:27:05.602Z,99735.28
2022-10-19T10:29:39.001Z,99718.66
2022-10-19T10:32:21.265Z,99712.31
2022-10-19T10:35:01.850Z,99721.03
2022-10-19T10:37:44.489Z,99735.69
2022-10-19T10:40:31.553Z,99714.28
2022-10-19T10:43:17.530Z,99702.81
2022-10-19T10:45:48.747Z,99699.22
2022-10-19T10:48:32.821Z,99708.16
2022-10-19T10:51:01.997Z,99697.16
2022-10-19T10:53:45.090Z,99708.63
2022-10-19T10:56:29.805Z,99682.56
2022-10-19T10:59:04.227Z,99725.69
2022-10-19T11:01:41.587Z,99711.44
2022-10-19T11:04:19.926Z,99719.34
2022-10-19T11:06:57.027Z,99694.00
2022-10-19T11:09:38.263Z,99714.97
2022-10-19T11:12:11.295Z,99701.91
2022-10-19T11:14:51.140Z,99663.91
2022-10-19T11:17:33.165Z,99661.56
2022-10-19T11:20:19.048Z,99671.00
2022-10-19T11:23:12.793Z,99689.91
2022-10-19T11:26:04.411Z,99683.66
2022-10-19T11:29:06.434Z,99672.47
2022-10-19T11:31:33.584Z,99683.88
2022-10-19T11:34:06.453Z,99645.59
2022-10-19T11:37:02.459Z,99664.41
2022-10-19T11:39:51.708Z,99649.47
2022-10-19T11:45:47.482Z,99630.03
2022-10-19T11:48:43.740Z,99618.47
2022-10-19T11:51:37.194Z,99631.16
2022-10-19T11:54:44.936Z,99628.75
2022-10-19T11:57:17.969Z,99619.59
2022-10-19T12:00:37.662Z,99623.78
2022-10-19T12:03:27.778Z,99601.16
2022-10-19T12:06:29.360Z,99613.53
2022-10-19T12:09:38.527Z,99575.81
2022-10-19T12:12:30.587Z,99597.88
2022-10-19T12:15:30.482Z,99594.66
2022-10-19T12:18:06.885Z,99592.63
2022-10-19T12:20:54.433Z,99602.03
2022-10-19T12:23:34.236Z,99597.19
2022-10-19T12:26:09.259Z,99571.50
2022-10-19T12:28:41.787Z,99564.41
2022-10-19T12:31:10.929Z,99571.56
2022-10-19T12:34:34.842Z,99569.97
2022-10-19T12:37:25.469Z,99576.06
2022-10-19T12:39:59.194Z,99570.94
2022-10-19T12:43:14.440Z,99554.28
2022-10-19T12:46:24.251Z,99569.84
2022-10-19T12:51:55.827Z,99553.38
2022-10-19T12:54:29.083Z,99532.00
2022-10-19T12:57:00.220Z,99537.56
2022-10-19T12:59:34.469Z,99518.66
2022-10-19T13:02:05.763Z,99562.03
2022-10-19T13:04:37.855Z,99515.97
2022-10-19T13:07:10.891Z,99532.66
2022-10-19T13:09:42.157Z,99534.66
2022-10-19T13:12:21.699Z,99537.03
2022-10-19T13:14:56.409Z,99557.84
2022-10-19T13:17:38.247Z,99515.25
2022-10-19T13:20:14.825Z,99521.25
2022-10-19T13:23:01.630Z,99484.06
2022-10-19T13:25:33.037Z,99549.72
2022-10-19T13:28:15.240Z,99532.31
2022-10-19T13:30:42.303Z,99493.88
2022-10-19T13:33:27.735Z,99490.94
2022-10-19T13:36:00.828Z,99503.78
2022-10-19T13:38:53.148Z,99469.66
2022-10-19T13:41:25.844Z,99508.50
2022-10-19T13:44:01.693Z,99498.38
2022-10-19T13:46:31.309Z,99488.19
2022-10-19T13:49:19.046Z,99479.84
2022-10-19T13:51:51.978Z,99499.16
2022-10-19T13:54:42.076Z,99516.34
2022-10-19T13:57:17.675Z,99483.34
2022-10-19T14:00:11.784Z,99492.94
2022-10-19T14:02:58.668Z,99508.59
2022-10-19T14:09:18.823Z,99466.03
2022-10-19T14:11:51.932Z,99520.94
2022-10-19T14:14:24.997Z,99486.38
2022-10-19T14:17:05.577Z,99500.63
2022-10-19T14:19:46.762Z,99469.97
2022-10-19T14:22:40.835Z,99467.59
2022-10-19T14:25:21.210Z,99512.31
2022-10-19T14:28:06.748Z,99486.34
2022-10-19T14:30:36.366Z,99488.34
2022-10-19T14:33:10.775Z,99492.53
2022-10-19T14:35:41.257Z,99482.09
2022-10-19T14:38:26.478Z,99470.53
2022-10-19T14:40:53.644Z,99475.34
2022-10-19T14:43:31.275Z,99465.16
2022-10-19T14:46:15.066Z,99463.88
2022-10-19T14:48:51.165Z,99453.34
2022-10-19T14:51:46.253Z,99443.09
2022-10-19T14:54:29.086Z,99473.59
2022-10-19T14:57:13.224Z,99468.63
2022-10-19T14:59:50.753Z,99484.38
2022-10-19T15:02:44.405Z,99473.88
2022-10-19T15:05:26.392Z,99453.97
2022-10-19T15:07:54.776Z,99485.91
2022-10-19T15:10:30.314Z,99428.19
2022-10-19T15:13:06.585Z,99434.84
2022-10-19T15:15:36.020Z,99416.84
2022-10-19T15:18:06.277Z,99433.25
2022-10-19T15:20:49.083Z,99452.94
2022-10-19T15:23:38.066Z,99436.22
2022-10-19T15:26:24.564Z,99418.25
2022-10-19T15:28:52.827Z,99429.28
2022-10-19T15:31:29.188Z,99443.13
2022-10-19T15:33:59.291Z,99450.19
2022-10-19T15:36:28.547Z,99434.13
2022-10-19T15:39:06.337Z,99405.69
2022-10-19T15:41:45.774Z,99462.16
2022-10-19T15:44:42.853Z,99413.53
2022-10-19T15:47:16.251Z,99432.66
2022-10-19T15:49:43.369Z,99384.72
2022-10-19T15:52:22.363Z,99431.97
2022-10-19T15:54:51.806Z,99419.44
2022-10-19T15:57:35.558Z,99427.53
2022-10-19T16:00:16.419Z,99433.94
2022-10-19T16:02:44.056Z,99411.78
2022-10-19T16:05:11.530Z,99393.66
2022-10-19T16:07:40.959Z,99400.75
2022-10-19T16:10:21.931Z,99407.31
2022-10-19T16:12:49.348Z,99389.50
2022-10-19T16:15:23.863Z,99380.34
2022-10-19T16:17:55.576Z,99392.97
2022-10-19T16:20:25.149Z,99375.97
2022-10-19T16:22:52.223Z,99373.56
2022-10-19T16:25:20.088Z,99388.69
2022-10-19T16:27:47.333Z,99368.00
2022-10-19T16:30:14.647Z,99371.22
2022-10-19T16:35:10.083Z,99367.34
2022-10-19T16:37:37.570Z,99355.91
2022-10-19T16:40:05.618Z,99377.53
2022-10-19T16:42:34.822Z,99384.47
2022-10-19T16:45:02.157Z,99357.91
2022-10-19T16:47:29.136Z,99353.84
2022-10-19T16:50:00.353Z,99363.34
2022-10-19T16:52:28.952Z,99343.50
2022-10-19T16:54:56.621Z,99336.72
2022-10-19T16:57:23.723Z,99366.66
2022-10-19T17:02:26.479Z,99394.84
2022-10-19T17:04:53.359Z,99373.19
2022-10-19T17:07:20.337Z,99418.81
2022-10-19T17:09:49.783Z,99417.31
2022-10-19T17:12:19.483Z,99367.69
2022-10-19T17:14:46.423Z,99383.25
2022-10-19T17:17:13.545Z,99399.41
2022-10-19T17:19:40.618Z,99384.34
2022-10-19T17:22:07.918Z,99432.50
2022-10-19T17:24:35.107Z,99399.03
2022-10-19T17:27:03.366Z,99415.53
2022-10-19T17:29:31.247Z,99356.25
2022-10-19T17:31:58.700Z,99402.00
2022-10-19T17:34:25.977Z,99423.75
2022-10-19T17:36:52.983Z,99390.00
2022-10-19T17:39:27.222Z,99377.50
2022-10-19T17:42:01.652Z,99368.13
2022-10-19T17:44:30.608Z,99384.72
2022-10-19T17:46:58.206Z,99401.06
2022-10-19T17:49:25.327Z,99375.13
2022-10-19T17:51:56.150Z,99389.47
2022-10-19T17:54:23.210Z,99391.00
2022-10-19T17:56:50.212Z,99393.78
2022-10-19T17:59:17.272Z,99391.78
2022-10-19T18:01:45.462Z,99393.69
2022-10-19T18:04:12.403Z,99397.78
2022-10-19T18:06:39.522Z,99415.34
2022-10-19T18:09:10.565Z,99417.63
2022-10-19T18:11:42.726Z,99371.91
2022-10-19T18:14:11.979Z,99389.28
2022-10-19T18:16:44.565Z,99385.66
2022-10-19T18:19:14.544Z,99382.13
2022-10-19T18:21:44.344Z,99372.16
2022-10-19T18:24:16.843Z,99374.16
2022-10-19T18:26:43.968Z,99382.75
2022-10-19T18:29:16.610Z,99357.94
2022-10-19T18:31:43.875Z,99388.16
2022-10-19T18:34:16.013Z,99359.34
2022-10-19T18:36:43.832Z,99374.06
2022-10-19T18:39:13.088Z,99377.88
2022-10-19T18:41:41.121Z,99388.13
2022-10-19T18:44:11.413Z,99397.53
2022-10-19T18:46:38.554Z,99375.13
2022-10-19T18:49:08.261Z,99370.84
2022-10-19T18:51:36.077Z,99389.00
2022-10-19T18:54:03.193Z,99378.50
2022-10-19T18:56:30.227Z,99367.03
2022-10-19T18:58:57.472Z,99368.81
2022-10-19T19:01:27.627Z,99388.78
2022-10-19T19:03:58.047Z,99353.41
2022-10-19T19:06:33.085Z,99374.63
2022-10-19T19:09:01.923Z,99381.78
2022-10-19T19:11:35.929Z,99386.00
2022-10-19T19:14:20.948Z,99386.25
2022-10-19T19:16:48.330Z,99364.63
2022-10-19T19:19:17.984Z,99369.75
2022-10-19T19:21:45.238Z,99347.72
2022-10-19T19:24:16.337Z,99380.78
2022-10-19T19:26:49.477Z,99376.44
2022-10-19T19:29:18.092Z,99358.34
2022-10-19T19:31:45.532Z,99379.34
2022-10-19T19:34:12.580Z,99386.19
2022-10-19T19:36:48.088Z,99375.81
2022-10-19T19:39:19.346Z,99328.56
2022-10-19T19:41:47.809Z,99357.84
2022-10-19T19:44:14.880Z,99347.50
2022-10-19T19:46:41.861Z,99330.94
2022-10-19T19:49:09.241Z,99301.03
2022-10-19T19:51:36.487Z,99311.66
2022-10-19T19:54:04.323Z,99320.03
2022-10-19T19:56:32.015Z,99329.34
2022-10-19T19:59:03.086Z,99315.88
2022-10-19T20:01:30.601Z,99291.09
2022-10-19T20:03:59.611Z,99319.78
2022-10-19T20:06:26.590Z,99336.38
2022-10-19T20:08:55.236Z,99343.91
2022-10-19T20:11:24.472Z,99326.16
2022-10-19T20:13:51.696Z,99312.13
2022-10-19T20:16:26.537Z,99330.69
2022-10-19T20:19:12.985Z,99338.75
2022-10-19T20:21:40.900Z,99327.59
2022-10-19T20:24:08.259Z,99328.84
2022-10-19T20:26:35.845Z,99340.16
2022-10-19T20:29:04.742Z,99340.91
2022-10-19T20:31:33.546Z,99306.50
2022-10-19T20:34:00.688Z,99293.06
2022-10-19T20:36:27.863Z,99315.47
2022-10-19T20:38:57.537Z,99316.28
2022-10-19T20:41:28.207Z,99289.22
2022-10-19T20:43:56.206Z,99304.84
2022-10-19T20:46:27.500Z,99288.44
2022-10-19T20:48:59.504Z,99324.56
2022-10-19T20:51:31.908Z,99295.25
2022-10-19T20:54:01.912Z,99283.44
2022-10-19T20:56:34.573Z,99280.22
2022-10-19T20:59:08.689Z,99279.84
2022-10-19T21:01:38.387Z,99283.50
2022-10-19T21:04:08.853Z,99281.88
2022-10-19T21:06:40.223Z,99250.66
2022-10-19T21:09:08.274Z,99294.16
2022-10-19T21:11:38.897Z,99296.91
2022-10-19T21:14:13.883Z,99305.84
2022-10-19T21:16:41.417Z,99273.25
2022-10-19T21:19:20.873Z,99263.13
2022-10-19T21:21:52.546Z,99286.19
2022-10-19T21:24:27.052Z,99267.34
2022-10-19T21:26:54.388Z,99293.97
2022-10-19T21:29:21.596Z,99278.78
2022-10-19T21:31:52.478Z,99281.66
2022-10-19T21:34:26.540Z,99311.19
2022-10-19T21:36:54.872Z,99308.28
2022-10-19T21:39:22.554Z,99311.50
2022-10-19T21:41:50.761Z,99303.56
2022-10-19T21:44:18.946Z,99303.63
2022-10-19T21:46:47.960Z,99313.41
2022-10-19T21:49:15.818Z,99271.97
2022-10-19T21:51:47.513Z,99272.72
2022-10-19T21:54:18.679Z,99271.03
2022-10-19T21:56:47.081Z,99269.69
2022-10-19T21:59:15.507Z,99265.13
2022-10-19T22:01:43.015Z,99243.47
2022-10-19T22:04:15.228Z,99226.88
2022-10-19T22:06:43.329Z,99234.81
2022-10-19T22:09:16.847Z,99244.25
2022-10-19T22:11:44.237Z,99212.69
2022-10-19T22:14:13.992Z,99232.50
2022-10-19T22:16:42.328Z,99227.91
2022-10-19T22:19:10.123Z,99228.38
2022-10-19T22:24:14.778Z,99202.78
2022-10-19T22:26:50.613Z,99203.16
2022-10-19T22:29:17.955Z,99219.81
2022-10-19T22:31:45.236Z,99242.56
2022-10-19T22:34:17.672Z,99201.00
2022-10-19T22:36:45.666Z,99192.34
2022-10-19T22:39:14.103Z,99203.38
2022-10-19T22:41:41.426Z,99197.16
2022-10-19T22:44:08.472Z,99187.31
2022-10-19T22:46:35.564Z,99230.16
2022-10-19T22:49:02.667Z,99175.03
2022-10-19T22:51:30.107Z,99190.56
2022-10-19T22:53:57.114Z,99170.78
2022-10-19T22:56:24.156Z,99209.00
2022-10-19T22:58:51.246Z,99173.47
2022-10-19T23:01:18.657Z,99212.13
2022-10-19T23:03:45.716Z,99160.88
2022-10-19T23:06:15.662Z,99170.44
2022-10-19T23:08:44.031Z,99153.03
2022-10-19T23:11:11.864Z,99128.56
2022-10-19T23:13:39.460Z,99158.50
2022-10-19T23:16:07.325Z,99161.66
2022-10-19T23:18:36.637Z,99152.97
2022-10-19T23:21:07.824Z,99188.34
2022-10-19T23:23:35.924Z,99140.31
2022-10-19T23:26:09.397Z,99144.28
2022-10-19T23:28:38.713Z,99132.41
2022-10-19T23:31:24.748Z,99125.28
2022-10-19T23:33:53.811Z,99141.91
2022-10-19T23:36:27.911Z,99150.59
2022-10-19T23:38:56.970Z,99115.47
2022-10-19T23:41:24.258Z,99123.00
2022-10-19T23:43:51.573Z,99124.22
2022-10-19T23:46:19.033Z,99134.84
2022-10-19T23:48:46.059Z,99150.19
2022-10-19T23:51:16.177Z,99156.06
2022-10-19T23:53:47.203Z,99140.31
2022-10-19T23:56:20.871Z,99138.72
2022-10-19T23:58:48.900Z,99151.78
